Aviation Digital Data Service (ADDS)

Output produced by METARs form (1913 UTC 23 June 2018)
found at http://aviationweather.gov/adds/metars/
 
KLFK 231740Z 2318/2418 20009KT P6SM SCT045 
     FM240100 16009KT P6SM SKC 
     FM240700 16007KT P6SM BKN010 
     FM241200 17007KT P6SM BKN015 
     FM241500 18010KT P6SM SCT025